»·PEaware :: N1128 KSMX-KLAX

N1128 :: KSMX-KLAX

FLIGHT INFORMATION

Flight Status: Arrived
Operator: Privately registered:
United States
More flights under this callsign
Pilot: Siddique N. (20419)
Aircraft: Unknown
(BT7)
More flights by this aircraft type
Origin: KSMX Santa Maria Pub/Capt Hancock
United States
Destination: KLAX Los Angeles Intl
United States
More flights between these airports :: More routes between these airports
Route: RZS VTU SADDE8
File this flight plan on PilotEdge
Remarks:
Altitude:
(Current/Filed)
11,000ft
Speed:
(Current/Filed)
250kts
Departed: 09-Sep-20 10:03 AM
Arrived: 09-Sep-20 10:37 AM
Distance/Time
Traveled:
117nm/0:33
Distance/Time
To Go:
Arrived

Flight Plot

Page will automatically refresh every two minutes.

Flight plan parsing failed; only flown route is shown


Map Options




Map Legend


Flown Route
Filed Route
Departure Airport
Arrival Airport
Navaid (VOR, NDB)
Fix

Horizontal Profiles

Position Reports

Time Latitude Longitude Heading Altitude Ground
Speed
09-Sep-20 09:40 34.900738 -120.451550 228 266ft 0kts
09-Sep-20 09:41 34.900738 -120.451550 228 266ft 0kts
09-Sep-20 09:42 34.900738 -120.451550 228 266ft 0kts
09-Sep-20 09:43 34.900738 -120.451550 228 266ft 0kts
09-Sep-20 09:44 34.900738 -120.451550 228 266ft 0kts
09-Sep-20 09:45 34.900738 -120.451550 228 266ft 0kts
09-Sep-20 09:46 34.900738 -120.451550 228 266ft 0kts
09-Sep-20 09:47 34.900738 -120.451550 228 266ft 0kts
09-Sep-20 09:48 34.900738 -120.451550 228 266ft 0kts
09-Sep-20 09:49 34.900738 -120.451550 228 266ft 0kts
09-Sep-20 09:50 34.900738 -120.451550 228 266ft 0kts
09-Sep-20 09:51 34.900738 -120.451550 228 266ft 0kts
09-Sep-20 09:53 34.900738 -120.451550 228 266ft 0kts
09-Sep-20 09:54 34.900738 -120.451550 228 266ft 0kts
09-Sep-20 09:55 34.900721 -120.451572 226 266ft 3kts
09-Sep-20 09:56 34.898302 -120.449975 135 266ft 17kts
09-Sep-20 09:57 34.894448 -120.445360 143 266ft 19kts
09-Sep-20 09:58 34.893446 -120.445069 177 266ft 0kts
09-Sep-20 09:59 34.893446 -120.445069 177 266ft 0kts
09-Sep-20 10:00 34.893446 -120.445069 177 266ft 0kts
09-Sep-20 10:01 34.893446 -120.445069 177 266ft 0kts
09-Sep-20 10:02 34.892771 -120.445811 313 266ft 0kts
09-Sep-20 10:03 34.907936 -120.464228 314 386ft 244kts
09-Sep-20 10:04 34.945049 -120.455542 91 1461ft 171kts
09-Sep-20 10:05 34.926379 -120.396334 112 3319ft 229kts
09-Sep-20 10:06 34.903251 -120.324184 112 6569ft 242kts
09-Sep-20 10:07 34.877278 -120.242095 112 8007ft 282kts
09-Sep-20 10:08 34.848591 -120.151363 112 8002ft 281kts
09-Sep-20 10:08 34.824905 -120.076576 112 8005ft 287kts
09-Sep-20 10:10 34.791814 -119.971742 111 8008ft 284kts
09-Sep-20 10:11 34.761765 -119.876908 111 8002ft 300kts
09-Sep-20 10:11 34.737483 -119.799892 111 8000ft 283kts
09-Sep-20 10:12 34.698238 -119.727110 130 9461ft 247kts
09-Sep-20 10:14 34.640173 -119.654076 134 10973ft 296kts
09-Sep-20 10:14 34.588345 -119.588664 134 10980ft 335kts
09-Sep-20 10:15 34.520431 -119.508369 136 10976ft 342kts
09-Sep-20 10:16 34.452492 -119.428369 136 10976ft 339kts
09-Sep-20 10:17 34.384804 -119.348464 136 10977ft 337kts
09-Sep-20 10:18 34.315827 -119.272013 139 10976ft 335kts
09-Sep-20 10:19 34.246293 -119.196149 137 10976ft 335kts
09-Sep-20 10:20 34.180347 -119.120539 137 10961ft 297kts
09-Sep-20 10:21 34.124324 -119.057473 140 10971ft 262kts
09-Sep-20 10:22 34.099143 -118.976884 109 10976ft 260kts
09-Sep-20 10:23 34.078392 -118.892039 109 10977ft 266kts
09-Sep-20 10:24 34.055938 -118.805661 109 10977ft 272kts
09-Sep-20 10:25 34.037494 -118.719009 99 9865ft 257kts
09-Sep-20 10:26 34.029831 -118.638581 97 8621ft 239kts
09-Sep-20 10:27 34.023223 -118.559818 97 7097ft 226kts
09-Sep-20 10:28 34.016700 -118.484595 97 6978ft 228kts
09-Sep-20 10:29 34.016553 -118.408729 81 6978ft 231kts
09-Sep-20 10:30 34.027011 -118.337072 81 6948ft 233kts
09-Sep-20 10:31 34.034483 -118.269586 111 5932ft 215kts
09-Sep-20 10:32 33.995865 -118.264626 212 4099ft 196kts
09-Sep-20 10:33 33.957830 -118.288235 206 2396ft 194kts
09-Sep-20 10:34 33.942840 -118.329501 263 1039ft 143kts
09-Sep-20 10:35 33.937869 -118.378591 260 260ft 135kts
09-Sep-20 10:36 33.934858 -118.401671 235 110ft 2kts
09-Sep-20 10:37 33.934855 -118.401677 235 110ft 0kts
09-Sep-20 10:38 33.933225 -118.403596 223 110ft 0kts
09-Sep-20 10:39 33.933225 -118.403596 223 110ft 0kts

Navigation Log

Ident Type
Flight plan parsing failed, navigation log unavailable